DECFD LMML-LICP
Flight info
| Callsign | DECFD |
|---|---|
| Flight time | 1h 36m |
| Altitude | 4500 |
| Route | CBS1 COM CBN2 PA05 |
| Aircraft | P28B/L-SDE3/L |
Departure
| Time | 2026-04-24 14:59 |
|---|---|
| Airport | Malta International Airport (LMML) |
Arrival
| Time | 2026-04-24 16:36 |
|---|---|
| Airport | Palermo-Boccadifalco Airport (LICP) |
| Time | Latitude | Longitude | Altitude | Speed | Heading |
|---|---|---|---|---|---|
| 2026-04-24 13:48 | 35.85929 | 14.47332 | 266 ft | 0 kts | 237° |
| 2026-04-24 14:51 | 35.85905 | 14.47322 | 266 ft | 10 kts | 154° |
| 2026-04-24 14:51 | 35.85837 | 14.47342 | 266 ft | 10 kts | 179° |
| 2026-04-24 14:51 | 35.85774 | 14.47354 | 266 ft | 8 kts | 164° |
| 2026-04-24 14:51 | 35.85722 | 14.47368 | 266 ft | 5 kts | 205° |
| 2026-04-24 14:52 | 35.85694 | 14.47316 | 266 ft | 11 kts | 236° |
| 2026-04-24 14:52 | 35.85608 | 14.47236 | 266 ft | 21 kts | 234° |
| 2026-04-24 14:52 | 35.85510 | 14.47074 | 274 ft | 26 kts | 233° |
| 2026-04-24 14:52 | 35.85418 | 14.46893 | 284 ft | 22 kts | 257° |
| 2026-04-24 14:53 | 35.85343 | 14.46732 | 293 ft | 23 kts | 234° |
| 2026-04-24 14:53 | 35.85238 | 14.46555 | 302 ft | 28 kts | 234° |
| 2026-04-24 14:53 | 35.85114 | 14.46344 | 302 ft | 31 kts | 235° |
| 2026-04-24 14:53 | 35.84983 | 14.46118 | 302 ft | 32 kts | 233° |
| 2026-04-24 14:54 | 35.84875 | 14.45966 | 302 ft | 12 kts | 201° |
| 2026-04-24 14:54 | 35.84805 | 14.45969 | 304 ft | 10 kts | 156° |
| 2026-04-24 14:54 | 35.84763 | 14.46019 | 302 ft | 8 kts | 104° |
| 2026-04-24 14:54 | 35.84773 | 14.46067 | 304 ft | 5 kts | 54° |
| 2026-04-24 14:55 | 35.84776 | 14.46071 | 303 ft | 0 kts | 57° |
| 2026-04-24 14:58 | 35.84870 | 14.46234 | 303 ft | 51 kts | 55° |
| 2026-04-24 14:58 | 35.85145 | 14.46713 | 415 ft | 77 kts | 51° |
| 2026-04-24 14:59 | 35.85440 | 14.47267 | 719 ft | 73 kts | 51° |
| 2026-04-24 14:59 | 35.85749 | 14.47792 | 904 ft | 82 kts | 51° |
| 2026-04-24 14:59 | 35.86081 | 14.48343 | 1207 ft | 78 kts | 41° |
| 2026-04-24 14:59 | 35.86496 | 14.48805 | 1484 ft | 82 kts | 37° |
| 2026-04-24 15:00 | 35.87000 | 14.49287 | 1595 ft | 106 kts | 36° |
| 2026-04-24 15:00 | 35.87660 | 14.49900 | 1613 ft | 128 kts | 36° |
| 2026-04-24 15:00 | 35.88503 | 14.50330 | 1610 ft | 137 kts | 6° |
| 2026-04-24 15:00 | 35.89389 | 14.50077 | 1605 ft | 130 kts | 330° |
| 2026-04-24 15:01 | 35.89986 | 14.49313 | 1595 ft | 123 kts | 309° |
| 2026-04-24 15:01 | 35.90510 | 14.48475 | 1583 ft | 123 kts | 311° |
| 2026-04-24 15:01 | 35.91052 | 14.47677 | 1587 ft | 122 kts | 313° |
| 2026-04-24 15:01 | 35.91619 | 14.46886 | 1591 ft | 123 kts | 314° |
| 2026-04-24 15:02 | 35.92193 | 14.46103 | 1589 ft | 122 kts | 314° |
| 2026-04-24 15:02 | 35.92743 | 14.45358 | 1583 ft | 114 kts | 316° |
| 2026-04-24 15:02 | 35.93259 | 14.44662 | 1592 ft | 106 kts | 315° |
| 2026-04-24 15:02 | 35.93750 | 14.44000 | 1589 ft | 102 kts | 316° |
| 2026-04-24 15:03 | 35.94064 | 14.43575 | 1589 ft | 99 kts | 316° |
| 2026-04-24 15:03 | 35.94693 | 14.42732 | 1587 ft | 101 kts | 315° |
| 2026-04-24 15:03 | 35.95169 | 14.42091 | 1590 ft | 101 kts | 316° |
| 2026-04-24 15:03 | 35.95743 | 14.41666 | 1581 ft | 98 kts | 357° |
| 2026-04-24 15:04 | 35.96407 | 14.41688 | 1752 ft | 97 kts | 2° |
| 2026-04-24 15:04 | 35.97094 | 14.41694 | 1972 ft | 101 kts | 1° |
| 2026-04-24 15:04 | 35.97801 | 14.41698 | 2180 ft | 102 kts | 1° |
| 2026-04-24 15:04 | 35.98524 | 14.41700 | 2394 ft | 106 kts | 1° |
| 2026-04-24 15:05 | 35.99262 | 14.41701 | 2603 ft | 106 kts | 2° |
| 2026-04-24 15:05 | 36.00003 | 14.41700 | 2811 ft | 107 kts | 2° |
| 2026-04-24 15:05 | 36.00741 | 14.41699 | 3012 ft | 108 kts | 1° |
| 2026-04-24 15:05 | 36.01494 | 14.41698 | 3219 ft | 108 kts | 2° |
| 2026-04-24 15:06 | 36.02246 | 14.41697 | 3417 ft | 107 kts | 2° |
| 2026-04-24 15:06 | 36.02983 | 14.41694 | 3615 ft | 106 kts | 2° |
| 2026-04-24 15:06 | 36.03714 | 14.41693 | 3820 ft | 104 kts | 2° |
| 2026-04-24 15:06 | 36.04436 | 14.41691 | 4015 ft | 104 kts | 3° |
| 2026-04-24 15:07 | 36.05158 | 14.41690 | 4220 ft | 104 kts | 3° |
| 2026-04-24 15:07 | 36.05877 | 14.41689 | 4421 ft | 103 kts | 2° |
| 2026-04-24 15:07 | 36.06348 | 14.41687 | 4554 ft | 102 kts | 2° |
| 2026-04-24 15:07 | 36.07371 | 14.41687 | 4611 ft | 119 kts | 2° |
| 2026-04-24 15:08 | 36.07938 | 14.41688 | 4609 ft | 126 kts | 2° |
| 2026-04-24 15:08 | 36.08840 | 14.41687 | 4609 ft | 132 kts | 2° |
| 2026-04-24 15:08 | 36.09777 | 14.41685 | 4612 ft | 136 kts | 2° |
| 2026-04-24 15:08 | 36.10734 | 14.41684 | 4607 ft | 138 kts | 2° |
| 2026-04-24 15:09 | 36.11693 | 14.41681 | 4601 ft | 135 kts | 3° |
| 2026-04-24 15:09 | 36.12578 | 14.41677 | 4589 ft | 120 kts | 3° |
| 2026-04-24 15:09 | 36.13383 | 14.41675 | 4585 ft | 111 kts | 3° |
| 2026-04-24 15:09 | 36.14135 | 14.41672 | 4585 ft | 106 kts | 3° |
| 2026-04-24 15:10 | 36.14850 | 14.41664 | 4589 ft | 102 kts | 3° |
| 2026-04-24 15:10 | 36.15562 | 14.41651 | 4588 ft | 103 kts | 2° |
| 2026-04-24 15:10 | 36.16278 | 14.41633 | 4586 ft | 103 kts | 2° |
| 2026-04-24 15:10 | 36.16994 | 14.41610 | 4592 ft | 103 kts | 2° |
| 2026-04-24 15:11 | 36.17711 | 14.41582 | 4591 ft | 103 kts | 1° |
| 2026-04-24 15:11 | 36.18426 | 14.41549 | 4591 ft | 102 kts | 1° |
| 2026-04-24 15:11 | 36.19138 | 14.41511 | 4590 ft | 102 kts | 1° |
| 2026-04-24 15:11 | 36.19850 | 14.41467 | 4589 ft | 102 kts | 1° |
| 2026-04-24 15:12 | 36.20490 | 14.41742 | 4587 ft | 98 kts | 22° |
| 2026-04-24 15:12 | 36.21857 | 14.42015 | 4597 ft | 100 kts | 11° |
| 2026-04-24 15:12 | 36.22543 | 14.42122 | 4599 ft | 101 kts | 10° |
| 2026-04-24 15:13 | 36.23244 | 14.42222 | 4604 ft | 101 kts | 9° |
| 2026-04-24 15:13 | 36.23948 | 14.42318 | 4606 ft | 102 kts | 9° |
| 2026-04-24 15:13 | 36.24653 | 14.42412 | 4607 ft | 102 kts | 9° |
| 2026-04-24 15:13 | 36.25360 | 14.42505 | 4609 ft | 102 kts | 9° |
| 2026-04-24 15:14 | 36.26068 | 14.42597 | 4608 ft | 102 kts | 9° |
| 2026-04-24 15:14 | 36.26775 | 14.42689 | 4607 ft | 102 kts | 9° |
| 2026-04-24 15:14 | 36.27483 | 14.42781 | 4608 ft | 102 kts | 9° |
| 2026-04-24 15:14 | 36.28181 | 14.42872 | 4607 ft | 102 kts | 9° |
| 2026-04-24 15:15 | 36.28885 | 14.42963 | 4604 ft | 101 kts | 9° |
| 2026-04-24 15:15 | 36.29587 | 14.43054 | 4610 ft | 102 kts | 9° |
| 2026-04-24 15:15 | 36.30293 | 14.43146 | 4606 ft | 102 kts | 9° |
| 2026-04-24 15:15 | 36.30997 | 14.43238 | 4605 ft | 102 kts | 9° |
| 2026-04-24 15:16 | 36.31700 | 14.43329 | 4609 ft | 101 kts | 9° |
| 2026-04-24 15:16 | 36.32404 | 14.43420 | 4609 ft | 102 kts | 9° |
| 2026-04-24 15:16 | 36.33108 | 14.43512 | 4608 ft | 102 kts | 9° |
| 2026-04-24 15:16 | 36.33814 | 14.43604 | 4607 ft | 102 kts | 9° |
| 2026-04-24 15:17 | 36.34520 | 14.43696 | 4605 ft | 102 kts | 9° |
| 2026-04-24 15:17 | 36.35228 | 14.43788 | 4605 ft | 102 kts | 9° |
| 2026-04-24 15:17 | 36.35925 | 14.43878 | 4605 ft | 102 kts | 8° |
| 2026-04-24 15:17 | 36.36635 | 14.43971 | 4607 ft | 103 kts | 8° |
| 2026-04-24 15:18 | 36.37351 | 14.44064 | 4614 ft | 103 kts | 8° |
| 2026-04-24 15:18 | 36.38068 | 14.44157 | 4608 ft | 103 kts | 8° |
| 2026-04-24 15:18 | 36.38783 | 14.44250 | 4608 ft | 103 kts | 8° |
| 2026-04-24 15:18 | 36.39498 | 14.44343 | 4608 ft | 103 kts | 8° |
| 2026-04-24 15:19 | 36.40212 | 14.44436 | 4606 ft | 103 kts | 8° |
| 2026-04-24 15:19 | 36.40923 | 14.44529 | 4606 ft | 103 kts | 8° |
| 2026-04-24 15:19 | 36.41632 | 14.44621 | 4607 ft | 102 kts | 8° |
| 2026-04-24 15:19 | 36.42333 | 14.44712 | 4605 ft | 102 kts | 9° |
| 2026-04-24 15:20 | 36.43039 | 14.44804 | 4603 ft | 102 kts | 8° |
| 2026-04-24 15:20 | 36.43744 | 14.44896 | 4606 ft | 101 kts | 8° |
| 2026-04-24 15:20 | 36.44450 | 14.44988 | 4604 ft | 102 kts | 8° |
| 2026-04-24 15:20 | 36.45157 | 14.45080 | 4608 ft | 102 kts | 8° |
| 2026-04-24 15:21 | 36.45866 | 14.45173 | 4605 ft | 103 kts | 8° |
| 2026-04-24 15:21 | 36.46577 | 14.45265 | 4605 ft | 103 kts | 8° |
| 2026-04-24 15:21 | 36.47287 | 14.45358 | 4607 ft | 103 kts | 8° |
| 2026-04-24 15:21 | 36.48000 | 14.45451 | 4607 ft | 103 kts | 8° |
| 2026-04-24 15:22 | 36.48711 | 14.45544 | 4611 ft | 103 kts | 8° |
| 2026-04-24 15:22 | 36.49414 | 14.45635 | 4612 ft | 103 kts | 8° |
| 2026-04-24 15:22 | 36.50126 | 14.45729 | 4614 ft | 103 kts | 8° |
| 2026-04-24 15:23 | 36.51548 | 14.45914 | 4608 ft | 103 kts | 8° |
| 2026-04-24 15:23 | 36.52970 | 14.46100 | 4607 ft | 102 kts | 8° |
| 2026-04-24 15:23 | 36.53679 | 14.46192 | 4607 ft | 102 kts | 8° |
| 2026-04-24 15:24 | 36.55798 | 14.46469 | 4607 ft | 102 kts | 8° |
| 2026-04-24 15:25 | 36.56987 | 14.46625 | 4607 ft | 103 kts | 8° |
| 2026-04-24 15:25 | 36.58637 | 14.46841 | 4608 ft | 102 kts | 8° |
| 2026-04-24 15:26 | 36.60794 | 14.47123 | 4609 ft | 104 kts | 8° |
| 2026-04-24 15:27 | 36.62924 | 14.47402 | 4604 ft | 103 kts | 8° |
| 2026-04-24 15:27 | 36.65076 | 14.47684 | 4599 ft | 104 kts | 7° |
| 2026-04-24 15:28 | 36.67943 | 14.48060 | 4599 ft | 104 kts | 8° |
| 2026-04-24 15:29 | 36.69386 | 14.48249 | 4595 ft | 105 kts | 7° |
| 2026-04-24 15:30 | 36.71524 | 14.48529 | 4593 ft | 102 kts | 8° |
| 2026-04-24 15:31 | 36.74329 | 14.48898 | 4580 ft | 103 kts | 7° |
| 2026-04-24 15:32 | 36.77409 | 14.49304 | 4201 ft | 120 kts | 7° |
| 2026-04-24 15:33 | 36.80694 | 14.50488 | 3706 ft | 128 kts | 24° |
| 2026-04-24 15:33 | 36.83149 | 14.51837 | 3333 ft | 131 kts | 22° |
| 2026-04-24 15:34 | 36.84839 | 14.52766 | 3084 ft | 134 kts | 21° |
| 2026-04-24 15:35 | 36.87593 | 14.53419 | 2701 ft | 134 kts | 7° |
| 2026-04-24 15:35 | 36.89444 | 14.53587 | 2441 ft | 132 kts | 350° |
| 2026-04-24 15:35 | 36.90343 | 14.53461 | 2318 ft | 133 kts | 348° |
| 2026-04-24 15:36 | 36.91271 | 14.53368 | 2193 ft | 134 kts | 351° |
| 2026-04-24 15:36 | 36.93045 | 14.53142 | 2066 ft | 117 kts | 350° |
| 2026-04-24 15:36 | 36.93821 | 14.53100 | 2095 ft | 106 kts | 15° |
| 2026-04-24 15:37 | 36.94472 | 14.53405 | 2002 ft | 98 kts | 8° |
| 2026-04-24 15:37 | 36.94944 | 14.53962 | 1877 ft | 94 kts | 53° |
| 2026-04-24 15:37 | 36.95340 | 14.54628 | 1702 ft | 93 kts | 44° |
| 2026-04-24 15:37 | 36.95771 | 14.55218 | 1647 ft | 90 kts | 45° |
| 2026-04-24 15:38 | 36.96165 | 14.55842 | 1528 ft | 94 kts | 47° |
| 2026-04-24 15:38 | 36.96560 | 14.56447 | 1558 ft | 87 kts | 50° |
| 2026-04-24 15:38 | 36.96988 | 14.57036 | 1337 ft | 94 kts | 49° |
| 2026-04-24 15:38 | 36.97402 | 14.57653 | 1188 ft | 92 kts | 41° |
| 2026-04-24 15:39 | 36.97807 | 14.58250 | 1101 ft | 87 kts | 44° |
| 2026-04-24 15:39 | 36.98200 | 14.58831 | 955 ft | 86 kts | 50° |
| 2026-04-24 15:39 | 36.98593 | 14.59411 | 837 ft | 88 kts | 47° |
| 2026-04-24 15:39 | 36.98970 | 14.59975 | 729 ft | 78 kts | 47° |
| 2026-04-24 15:40 | 36.99285 | 14.60445 | 716 ft | 63 kts | 48° |
| 2026-04-24 15:40 | 36.99499 | 14.60681 | 720 ft | 35 kts | 26° |
| 2026-04-24 15:40 | 36.99652 | 14.60755 | 715 ft | 10 kts | 17° |
| 2026-04-24 15:40 | 36.99664 | 14.60756 | 715 ft | 5 kts | 174° |
| 2026-04-24 15:41 | 36.99626 | 14.60744 | 716 ft | 10 kts | 201° |
| 2026-04-24 15:41 | 36.99556 | 14.60712 | 718 ft | 12 kts | 200° |
| 2026-04-24 15:41 | 36.99472 | 14.60676 | 718 ft | 12 kts | 159° |
| 2026-04-24 15:41 | 36.99465 | 14.60715 | 716 ft | 7 kts | 49° |
| 2026-04-24 15:42 | 36.99620 | 14.60947 | 714 ft | 62 kts | 50° |
| 2026-04-24 15:42 | 36.99966 | 14.61478 | 853 ft | 83 kts | 47° |
| 2026-04-24 15:42 | 37.00343 | 14.62003 | 1128 ft | 78 kts | 39° |
| 2026-04-24 15:42 | 37.00759 | 14.62387 | 1325 ft | 75 kts | 353° |
| 2026-04-24 15:43 | 37.01202 | 14.62190 | 1604 ft | 59 kts | 313° |
| 2026-04-24 15:43 | 37.01741 | 14.62083 | 1590 ft | 96 kts | 338° |
| 2026-04-24 15:43 | 37.02269 | 14.61626 | 1790 ft | 95 kts | 316° |
| 2026-04-24 15:43 | 37.02817 | 14.61120 | 1999 ft | 100 kts | 315° |
| 2026-04-24 15:44 | 37.03384 | 14.60591 | 2208 ft | 103 kts | 317° |
| 2026-04-24 15:44 | 37.03970 | 14.60045 | 2415 ft | 107 kts | 318° |
| 2026-04-24 15:44 | 37.04566 | 14.59489 | 2623 ft | 109 kts | 319° |
| 2026-04-24 15:44 | 37.05178 | 14.58917 | 2833 ft | 109 kts | 317° |
| 2026-04-24 15:45 | 37.05800 | 14.58332 | 3033 ft | 115 kts | 317° |
| 2026-04-24 15:45 | 37.06454 | 14.57725 | 3249 ft | 119 kts | 320° |
| 2026-04-24 15:45 | 37.07129 | 14.57095 | 3457 ft | 122 kts | 319° |
| 2026-04-24 15:45 | 37.07810 | 14.56459 | 3656 ft | 122 kts | 321° |
| 2026-04-24 15:46 | 37.08492 | 14.55836 | 3857 ft | 121 kts | 325° |
| 2026-04-24 15:46 | 37.09192 | 14.55259 | 4058 ft | 121 kts | 323° |
| 2026-04-24 15:46 | 37.09882 | 14.54644 | 4262 ft | 122 kts | 324° |
| 2026-04-24 15:46 | 37.10580 | 14.54035 | 4465 ft | 122 kts | 325° |
| 2026-04-24 15:47 | 37.11292 | 14.53418 | 4571 ft | 130 kts | 325° |
| 2026-04-24 15:47 | 37.12056 | 14.52760 | 4579 ft | 131 kts | 325° |
| 2026-04-24 15:47 | 37.12776 | 14.52139 | 4569 ft | 120 kts | 325° |
| 2026-04-24 15:47 | 37.13441 | 14.51565 | 4567 ft | 112 kts | 325° |
| 2026-04-24 15:48 | 37.14071 | 14.51021 | 4569 ft | 108 kts | 325° |
| 2026-04-24 15:48 | 37.14685 | 14.50492 | 4568 ft | 106 kts | 325° |
| 2026-04-24 15:48 | 37.15281 | 14.49977 | 4570 ft | 106 kts | 325° |
| 2026-04-24 15:48 | 37.15892 | 14.49450 | 4568 ft | 107 kts | 325° |
| 2026-04-24 15:49 | 37.16506 | 14.48919 | 4570 ft | 107 kts | 325° |
| 2026-04-24 15:49 | 37.17124 | 14.48386 | 4571 ft | 108 kts | 325° |
| 2026-04-24 15:49 | 37.17745 | 14.47851 | 4572 ft | 109 kts | 325° |
| 2026-04-24 15:49 | 37.18369 | 14.47312 | 4574 ft | 109 kts | 325° |
| 2026-04-24 15:50 | 37.18993 | 14.46773 | 4575 ft | 109 kts | 325° |
| 2026-04-24 15:50 | 37.19620 | 14.46231 | 4576 ft | 109 kts | 325° |
| 2026-04-24 15:50 | 37.20248 | 14.45690 | 4576 ft | 109 kts | 325° |
| 2026-04-24 15:50 | 37.20867 | 14.45155 | 4570 ft | 109 kts | 325° |
| 2026-04-24 15:51 | 37.21496 | 14.44611 | 4577 ft | 110 kts | 325° |
| 2026-04-24 15:51 | 37.22126 | 14.44066 | 4577 ft | 110 kts | 325° |
| 2026-04-24 15:51 | 37.22753 | 14.43524 | 4576 ft | 109 kts | 325° |
| 2026-04-24 15:51 | 37.23379 | 14.42983 | 4575 ft | 109 kts | 325° |
| 2026-04-24 15:52 | 37.23794 | 14.42624 | 4577 ft | 110 kts | 325° |
| 2026-04-24 15:52 | 37.24638 | 14.41893 | 4573 ft | 110 kts | 325° |
| 2026-04-24 15:52 | 37.25268 | 14.41348 | 4570 ft | 110 kts | 325° |
| 2026-04-24 15:52 | 37.25897 | 14.40804 | 4572 ft | 109 kts | 325° |
| 2026-04-24 15:53 | 37.26523 | 14.40262 | 4573 ft | 109 kts | 325° |
| 2026-04-24 15:53 | 37.27149 | 14.39720 | 4572 ft | 109 kts | 325° |
| 2026-04-24 15:53 | 37.27775 | 14.39178 | 4577 ft | 110 kts | 325° |
| 2026-04-24 15:53 | 37.28397 | 14.38639 | 4574 ft | 110 kts | 325° |
| 2026-04-24 15:54 | 37.29026 | 14.38094 | 4575 ft | 110 kts | 325° |
| 2026-04-24 15:54 | 37.29656 | 14.37548 | 4574 ft | 110 kts | 325° |
| 2026-04-24 15:54 | 37.30284 | 14.37004 | 4575 ft | 110 kts | 325° |
| 2026-04-24 15:54 | 37.30915 | 14.36457 | 4579 ft | 110 kts | 325° |
| 2026-04-24 15:55 | 37.31546 | 14.35909 | 4566 ft | 111 kts | 325° |
| 2026-04-24 15:55 | 37.31967 | 14.35545 | 4570 ft | 111 kts | 325° |
| 2026-04-24 15:55 | 37.32602 | 14.34994 | 4568 ft | 111 kts | 325° |
| 2026-04-24 15:55 | 37.33240 | 14.34440 | 4570 ft | 111 kts | 325° |
| 2026-04-24 15:56 | 37.33877 | 14.33887 | 4567 ft | 111 kts | 325° |
| 2026-04-24 15:56 | 37.34514 | 14.33334 | 4566 ft | 111 kts | 325° |
| 2026-04-24 15:56 | 37.35154 | 14.32779 | 4566 ft | 111 kts | 325° |
| 2026-04-24 15:56 | 37.35791 | 14.32225 | 4569 ft | 111 kts | 325° |
| 2026-04-24 15:57 | 37.36423 | 14.31677 | 4573 ft | 112 kts | 325° |
| 2026-04-24 15:57 | 37.37062 | 14.31122 | 4572 ft | 112 kts | 325° |
| 2026-04-24 15:57 | 37.37702 | 14.30566 | 4578 ft | 112 kts | 325° |
| 2026-04-24 15:57 | 37.38343 | 14.30009 | 4583 ft | 112 kts | 325° |
| 2026-04-24 15:58 | 37.38986 | 14.29450 | 4569 ft | 112 kts | 325° |
| 2026-04-24 15:58 | 37.39629 | 14.28891 | 4570 ft | 112 kts | 325° |
| 2026-04-24 15:58 | 37.40273 | 14.28330 | 4573 ft | 112 kts | 325° |
| 2026-04-24 15:58 | 37.40905 | 14.27781 | 4569 ft | 112 kts | 325° |
| 2026-04-24 15:59 | 37.41547 | 14.27222 | 4575 ft | 112 kts | 325° |
| 2026-04-24 15:59 | 37.42190 | 14.26664 | 4575 ft | 112 kts | 325° |
| 2026-04-24 15:59 | 37.42831 | 14.26106 | 4574 ft | 112 kts | 325° |
| 2026-04-24 15:59 | 37.43471 | 14.25548 | 4574 ft | 112 kts | 325° |
| 2026-04-24 16:00 | 37.44113 | 14.24989 | 4574 ft | 112 kts | 325° |
| 2026-04-24 16:00 | 37.44752 | 14.24433 | 4574 ft | 112 kts | 325° |
| 2026-04-24 16:00 | 37.45382 | 14.23884 | 4579 ft | 112 kts | 325° |
| 2026-04-24 16:00 | 37.46021 | 14.23327 | 4574 ft | 112 kts | 325° |
| 2026-04-24 16:01 | 37.46660 | 14.22770 | 4574 ft | 112 kts | 325° |
| 2026-04-24 16:01 | 37.47299 | 14.22213 | 4583 ft | 112 kts | 325° |
| 2026-04-24 16:01 | 37.47939 | 14.21655 | 4575 ft | 112 kts | 325° |
| 2026-04-24 16:01 | 37.48580 | 14.21096 | 4592 ft | 112 kts | 327° |
| 2026-04-24 16:02 | 37.49221 | 14.20537 | 4578 ft | 112 kts | 328° |
| 2026-04-24 16:02 | 37.49862 | 14.19979 | 4583 ft | 113 kts | 326° |
| 2026-04-24 16:02 | 37.50509 | 14.19413 | 4585 ft | 114 kts | 327° |
| 2026-04-24 16:02 | 37.51168 | 14.18840 | 4581 ft | 116 kts | 326° |
| 2026-04-24 16:03 | 37.51834 | 14.18260 | 4579 ft | 117 kts | 326° |
| 2026-04-24 16:03 | 37.52490 | 14.17684 | 4577 ft | 113 kts | 326° |
| 2026-04-24 16:03 | 37.53133 | 14.17122 | 4578 ft | 112 kts | 327° |
| 2026-04-24 16:03 | 37.53767 | 14.16569 | 4579 ft | 112 kts | 326° |
| 2026-04-24 16:04 | 37.54413 | 14.16004 | 4587 ft | 113 kts | 327° |
| 2026-04-24 16:04 | 37.55059 | 14.15440 | 4581 ft | 113 kts | 328° |
| 2026-04-24 16:04 | 37.55709 | 14.14872 | 4581 ft | 114 kts | 328° |
| 2026-04-24 16:04 | 37.56359 | 14.14305 | 4576 ft | 113 kts | 328° |
| 2026-04-24 16:05 | 37.57644 | 14.13180 | 4580 ft | 112 kts | 327° |
| 2026-04-24 16:05 | 37.58285 | 14.12620 | 4579 ft | 112 kts | 326° |
| 2026-04-24 16:06 | 37.59566 | 14.11498 | 4574 ft | 112 kts | 326° |
| 2026-04-24 16:06 | 37.60204 | 14.10940 | 4584 ft | 111 kts | 327° |
| 2026-04-24 16:06 | 37.61462 | 14.09836 | 4573 ft | 108 kts | 327° |
| 2026-04-24 16:07 | 37.62075 | 14.09300 | 4572 ft | 109 kts | 327° |
| 2026-04-24 16:07 | 37.62703 | 14.08751 | 4583 ft | 111 kts | 327° |
| 2026-04-24 16:07 | 37.63975 | 14.07635 | 4586 ft | 110 kts | 327° |
| 2026-04-24 16:08 | 37.64612 | 14.07076 | 4589 ft | 111 kts | 326° |
| 2026-04-24 16:08 | 37.65899 | 14.05950 | 4592 ft | 113 kts | 326° |
| 2026-04-24 16:09 | 37.67201 | 14.04807 | 4599 ft | 114 kts | 327° |
| 2026-04-24 16:09 | 37.67838 | 14.04247 | 4596 ft | 112 kts | 327° |
| 2026-04-24 16:09 | 37.68477 | 14.03686 | 4598 ft | 113 kts | 327° |
| 2026-04-24 16:09 | 37.69124 | 14.03118 | 4599 ft | 114 kts | 327° |
| 2026-04-24 16:10 | 37.71098 | 14.01386 | 4585 ft | 116 kts | 327° |
| 2026-04-24 16:11 | 37.72403 | 14.00239 | 4590 ft | 114 kts | 326° |
| 2026-04-24 16:11 | 37.73048 | 13.99670 | 4587 ft | 112 kts | 326° |
| 2026-04-24 16:11 | 37.73685 | 13.99110 | 4585 ft | 111 kts | 327° |
| 2026-04-24 16:12 | 37.74948 | 13.97999 | 4590 ft | 114 kts | 327° |
| 2026-04-24 16:12 | 37.75598 | 13.97429 | 4587 ft | 113 kts | 327° |
| 2026-04-24 16:12 | 37.76900 | 13.96283 | 4601 ft | 114 kts | 326° |
| 2026-04-24 16:13 | 37.77546 | 13.95714 | 4597 ft | 113 kts | 326° |
| 2026-04-24 16:13 | 37.78827 | 13.94585 | 4583 ft | 111 kts | 326° |
| 2026-04-24 16:14 | 37.80086 | 13.93475 | 4582 ft | 110 kts | 326° |
| 2026-04-24 16:14 | 37.80714 | 13.92922 | 4581 ft | 110 kts | 327° |
| 2026-04-24 16:14 | 37.81941 | 13.91840 | 4583 ft | 108 kts | 327° |
| 2026-04-24 16:15 | 37.82356 | 13.91474 | 4589 ft | 108 kts | 326° |
| 2026-04-24 16:15 | 37.83795 | 13.90204 | 4604 ft | 110 kts | 327° |
| 2026-04-24 16:16 | 37.85162 | 13.88999 | 4375 ft | 125 kts | 328° |
| 2026-04-24 16:16 | 37.85881 | 13.88366 | 4256 ft | 126 kts | 327° |
| 2026-04-24 16:17 | 37.88094 | 13.86411 | 3886 ft | 129 kts | 328° |
| 2026-04-24 16:17 | 37.89554 | 13.85119 | 3648 ft | 127 kts | 330° |
| 2026-04-24 16:18 | 37.90977 | 13.83860 | 3405 ft | 123 kts | 330° |
| 2026-04-24 16:18 | 37.92390 | 13.82611 | 3155 ft | 125 kts | 330° |
| 2026-04-24 16:18 | 37.93098 | 13.81984 | 3025 ft | 124 kts | 329° |
| 2026-04-24 16:19 | 37.94522 | 13.80725 | 2772 ft | 126 kts | 329° |
| 2026-04-24 16:19 | 37.95242 | 13.80086 | 2646 ft | 126 kts | 330° |
| 2026-04-24 16:20 | 37.96673 | 13.78817 | 2381 ft | 125 kts | 329° |
| 2026-04-24 16:20 | 37.97957 | 13.77369 | 2103 ft | 131 kts | 296° |
| 2026-04-24 16:20 | 37.98155 | 13.76253 | 2103 ft | 129 kts | 290° |
| 2026-04-24 16:21 | 37.98571 | 13.74092 | 2094 ft | 124 kts | 290° |
| 2026-04-24 16:21 | 37.98779 | 13.73052 | 2090 ft | 122 kts | 290° |
| 2026-04-24 16:21 | 37.99006 | 13.72017 | 2022 ft | 124 kts | 291° |
| 2026-04-24 16:22 | 37.99351 | 13.71007 | 1892 ft | 127 kts | 301° |
| 2026-04-24 16:22 | 38.00094 | 13.68945 | 1651 ft | 130 kts | 298° |
| 2026-04-24 16:22 | 38.00488 | 13.67914 | 1607 ft | 127 kts | 299° |
| 2026-04-24 16:23 | 38.00878 | 13.66919 | 1606 ft | 124 kts | 299° |
| 2026-04-24 16:23 | 38.01251 | 13.65951 | 1595 ft | 120 kts | 300° |
| 2026-04-24 16:23 | 38.01584 | 13.65008 | 1591 ft | 117 kts | 300° |
| 2026-04-24 16:24 | 38.02246 | 13.63157 | 1592 ft | 116 kts | 301° |
| 2026-04-24 16:24 | 38.02645 | 13.62271 | 1595 ft | 116 kts | 303° |
| 2026-04-24 16:24 | 38.03034 | 13.61370 | 1591 ft | 116 kts | 303° |
| 2026-04-24 16:24 | 38.03403 | 13.60484 | 1591 ft | 111 kts | 303° |
| 2026-04-24 16:25 | 38.03778 | 13.59627 | 1594 ft | 112 kts | 303° |
| 2026-04-24 16:25 | 38.04175 | 13.58772 | 1596 ft | 114 kts | 304° |
| 2026-04-24 16:25 | 38.04562 | 13.57877 | 1593 ft | 116 kts | 303° |
| 2026-04-24 16:26 | 38.05276 | 13.56149 | 1592 ft | 106 kts | 304° |
| 2026-04-24 16:26 | 38.05631 | 13.55327 | 1597 ft | 109 kts | 303° |
| 2026-04-24 16:26 | 38.06399 | 13.53573 | 1608 ft | 118 kts | 304° |
| 2026-04-24 16:27 | 38.06790 | 13.52686 | 1606 ft | 110 kts | 305° |
| 2026-04-24 16:27 | 38.07144 | 13.51812 | 1579 ft | 114 kts | 303° |
| 2026-04-24 16:27 | 38.07513 | 13.50916 | 1528 ft | 115 kts | 304° |
| 2026-04-24 16:27 | 38.07882 | 13.49995 | 1475 ft | 119 kts | 303° |
| 2026-04-24 16:28 | 38.08273 | 13.49070 | 1439 ft | 119 kts | 303° |
| 2026-04-24 16:28 | 38.08458 | 13.48048 | 1393 ft | 124 kts | 267° |
| 2026-04-24 16:28 | 38.08448 | 13.45868 | 1359 ft | 125 kts | 276° |
| 2026-04-24 16:29 | 38.08500 | 13.44782 | 1341 ft | 126 kts | 277° |
| 2026-04-24 16:29 | 38.08557 | 13.43668 | 1313 ft | 125 kts | 277° |
| 2026-04-24 16:29 | 38.08637 | 13.41418 | 1309 ft | 131 kts | 277° |
| 2026-04-24 16:30 | 38.08823 | 13.39318 | 1295 ft | 108 kts | 287° |
| 2026-04-24 16:30 | 38.08941 | 13.38394 | 1225 ft | 102 kts | 273° |
| 2026-04-24 16:30 | 38.08803 | 13.37542 | 1127 ft | 101 kts | 257° |
| 2026-04-24 16:31 | 38.08608 | 13.36664 | 1157 ft | 107 kts | 258° |
| 2026-04-24 16:31 | 38.08396 | 13.35740 | 1144 ft | 110 kts | 255° |
| 2026-04-24 16:31 | 38.08278 | 13.34816 | 1221 ft | 104 kts | 270° |
| 2026-04-24 16:31 | 38.08243 | 13.33908 | 1273 ft | 100 kts | 279° |
| 2026-04-24 16:32 | 38.08378 | 13.33376 | 1313 ft | 93 kts | 309° |
| 2026-04-24 16:32 | 38.09127 | 13.32925 | 1244 ft | 93 kts | 348° |
| 2026-04-24 16:32 | 38.09734 | 13.32742 | 1187 ft | 87 kts | 355° |
| 2026-04-24 16:32 | 38.10321 | 13.32618 | 1159 ft | 86 kts | 360° |
| 2026-04-24 16:33 | 38.10902 | 13.32548 | 1170 ft | 80 kts | 6° |
| 2026-04-24 16:33 | 38.11465 | 13.32535 | 1067 ft | 83 kts | 2° |
| 2026-04-24 16:33 | 38.12019 | 13.32500 | 1049 ft | 75 kts | 2° |
| 2026-04-24 16:33 | 38.12513 | 13.32553 | 1065 ft | 72 kts | 15° |
| 2026-04-24 16:34 | 38.13018 | 13.32636 | 1027 ft | 74 kts | 11° |
| 2026-04-24 16:34 | 38.13518 | 13.32718 | 931 ft | 73 kts | 13° |
| 2026-04-24 16:34 | 38.13871 | 13.32310 | 809 ft | 78 kts | 287° |
| 2026-04-24 16:34 | 38.13875 | 13.31598 | 810 ft | 81 kts | 251° |
| 2026-04-24 16:35 | 38.13431 | 13.31200 | 819 ft | 80 kts | 195° |
| 2026-04-24 16:35 | 38.12926 | 13.31128 | 647 ft | 75 kts | 170° |
| 2026-04-24 16:35 | 38.12410 | 13.31207 | 483 ft | 71 kts | 168° |
| 2026-04-24 16:35 | 38.11902 | 13.31292 | 356 ft | 72 kts | 167° |
| 2026-04-24 16:36 | 38.11482 | 13.31357 | 373 ft | 45 kts | 171° |
| 2026-04-24 16:36 | 38.11335 | 13.31379 | 388 ft | 8 kts | 173° |
| 2026-04-24 16:36 | 38.11340 | 13.31378 | 386 ft | 6 kts | 172° |
| 2026-04-24 16:36 | 38.11333 | 13.31379 | 388 ft | 6 kts | 175° |
| 2026-04-24 16:37 | 38.11302 | 13.31358 | 386 ft | 8 kts | 210° |
| 2026-04-24 16:37 | 38.11228 | 13.31306 | 387 ft | 15 kts | 209° |
| 2026-04-24 16:37 | 38.11172 | 13.31262 | 388 ft | 15 kts | 210° |
| 2026-04-24 16:37 | 38.11088 | 13.31211 | 393 ft | 7 kts | 239° |
| 2026-04-24 16:38 | 38.11073 | 13.31119 | 396 ft | 10 kts | 221° |
| 2026-04-24 16:38 | 38.11026 | 13.31118 | 401 ft | 6 kts | 175° |
| 2026-04-24 16:38 | 38.10991 | 13.31124 | 404 ft | 5 kts | 165° |
| 2026-04-24 16:38 | 38.10977 | 13.31125 | 405 ft | 0 kts | 251° |